sensor_id;sensor_type;location;lat;lon;timestamp;noise_LAeq;noise_LA_min;noise_LA_max;noise_LA01;noise_LA95
66589;Laerm;53447;49.272;11.070;2023-05-01T00:00:06;38.46;33.54;41.43;;
66589;Laerm;53447;49.272;11.070;2023-05-01T00:02:31;38.25;32.40;41.89;;
66589;Laerm;53447;49.272;11.070;2023-05-01T00:04:57;38.14;32.40;53.82;;
66589;Laerm;53447;49.272;11.070;2023-05-01T00:07:22;46.76;34.44;57.79;;
66589;Laerm;53447;49.272;11.070;2023-05-01T00:09:49;40.58;35.41;45.90;;
66589;Laerm;53447;49.272;11.070;2023-05-01T00:12:15;38.80;33.86;42.53;;
66589;Laerm;53447;49.272;11.070;2023-05-01T00:14:40;39.48;33.86;44.22;;
66589;Laerm;53447;49.272;11.070;2023-05-01T00:17:05;43.88;33.54;54.96;;
66589;Laerm;53447;49.272;11.070;2023-05-01T00:19:31;39.33;33.86;43.26;;
66589;Laerm;53447;49.272;11.070;2023-05-01T00:21:56;39.08;33.54;42.31;;
66589;Laerm;53447;49.272;11.070;2023-05-01T00:24:22;40.06;35.41;42.97;;
66589;Laerm;53447;49.272;11.070;2023-05-01T00:26:48;39.82;35.19;42.84;;
66589;Laerm;53447;49.272;11.070;2023-05-01T00:29:13;40.36;36.02;43.39;;
66589;Laerm;53447;49.272;11.070;2023-05-01T00:31:38;41.07;36.02;48.19;;
66589;Laerm;53447;49.272;11.070;2023-05-01T00:34:05;38.62;34.16;41.99;;
66589;Laerm;53447;49.272;11.070;2023-05-01T00:36:30;39.16;34.16;42.77;;
66589;Laerm;53447;49.272;11.070;2023-05-01T00:38:56;39.31;33.86;43.40;;
66589;Laerm;53447;49.272;11.070;2023-05-01T00:41:21;37.94;33.19;40.97;;
66589;Laerm;53447;49.272;11.070;2023-05-01T00:43:46;39.11;34.16;42.18;;
66589;Laerm;53447;49.272;11.070;2023-05-01T00:46:12;39.05;34.44;42.69;;
66589;Laerm;53447;49.272;11.070;2023-05-01T00:48:37;40.12;34.95;44.70;;
66589;Laerm;53447;49.272;11.070;2023-05-01T00:51:04;39.66;34.16;43.95;;
66589;Laerm;53447;49.272;11.070;2023-05-01T00:53:29;40.44;35.19;45.47;;
66589;Laerm;53447;49.272;11.070;2023-05-01T00:55:55;38.85;34.44;46.28;;
66589;Laerm;53447;49.272;11.070;2023-05-01T00:58:22;38.26;32.40;43.19;;
66589;Laerm;53447;49.272;11.070;2023-05-01T01:00:48;37.88;31.94;41.32;;
66589;Laerm;53447;49.272;11.070;2023-05-01T01:03:13;38.78;33.19;43.89;;
66589;Laerm;53447;49.272;11.070;2023-05-01T01:05:42;39.11;32.40;53.70;;
66589;Laerm;53447;49.272;11.070;2023-05-01T01:08:23;39.08;32.81;42.31;;
66589;Laerm;53447;49.272;11.070;2023-05-01T01:13:29;39.65;34.44;46.18;;
66589;Laerm;53447;49.272;11.070;2023-05-01T01:16:43;38.43;33.19;41.64;;
66589;Laerm;53447;49.272;11.070;2023-05-01T01:18:46;39.17;34.44;42.73;;
66589;Laerm;53447;49.272;11.070;2023-05-01T01:21:23;38.57;33.54;42.13;;
66589;Laerm;53447;49.272;11.070;2023-05-01T01:23:57;38.89;33.86;42.49;;
66589;Laerm;53447;49.272;11.070;2023-05-01T01:26:50;38.02;32.81;43.47;;
66589;Laerm;53447;49.272;11.070;2023-05-01T01:29:38;37.69;31.94;50.68;;
66589;Laerm;53447;49.272;11.070;2023-05-01T01:34:34;37.94;32.40;41.78;;
66589;Laerm;53447;49.272;11.070;2023-05-01T01:42:07;39.37;34.95;42.40;;
66589;Laerm;53447;49.272;11.070;2023-05-01T01:44:38;38.52;34.09;42.27;;
66589;Laerm;53447;49.272;11.070;2023-05-01T01:47:04;40.54;34.70;43.64;;
66589;Laerm;53447;49.272;11.070;2023-05-01T01:49:31;38.58;32.81;41.99;;
66589;Laerm;53447;49.272;11.070;2023-05-01T01:51:57;38.06;32.81;47.85;;
66589;Laerm;53447;49.272;11.070;2023-05-01T01:54:27;38.15;33.19;54.44;;
66589;Laerm;53447;49.272;11.070;2023-05-01T01:56:54;38.80;33.81;44.70;;
66589;Laerm;53447;49.272;11.070;2023-05-01T01:59:20;38.64;33.86;42.73;;
66589;Laerm;53447;49.272;11.070;2023-05-01T02:01:47;38.59;33.54;43.61;;
66589;Laerm;53447;49.272;11.070;2023-05-01T02:04:13;38.27;33.19;41.43;;
66589;Laerm;53447;49.272;11.070;2023-05-01T02:06:39;37.72;32.81;44.01;;
66589;Laerm;53447;49.272;11.070;2023-05-01T02:09:05;38.62;33.86;42.49;;
66589;Laerm;53447;49.272;11.070;2023-05-01T02:11:31;38.39;33.86;45.41;;
66589;Laerm;53447;49.272;11.070;2023-05-01T02:13:59;38.55;33.19;42.27;;
66589;Laerm;53447;49.272;11.070;2023-05-01T02:16:25;38.66;33.19;42.61;;
66589;Laerm;53447;49.272;11.070;2023-05-01T02:18:51;39.20;33.86;45.68;;
66589;Laerm;53447;49.272;11.070;2023-05-01T02:21:18;40.33;36.38;43.47;;
66589;Laerm;53447;49.272;11.070;2023-05-01T02:23:44;40.76;35.19;43.67;;
66589;Laerm;53447;49.272;11.070;2023-05-01T02:26:11;41.59;37.96;43.40;;
66589;Laerm;53447;49.272;11.070;2023-05-01T02:28:37;39.18;33.86;43.15;;
66589;Laerm;53447;49.272;11.070;2023-05-01T02:31:05;38.67;31.94;42.05;;
66589;Laerm;53447;49.272;11.070;2023-05-01T02:33:30;39.83;32.81;43.64;;
66589;Laerm;53447;49.272;11.070;2023-05-01T02:35:56;38.34;33.19;41.32;;
66589;Laerm;53447;49.272;11.070;2023-05-01T02:38:21;38.62;32.81;46.31;;
66589;Laerm;53447;49.272;11.070;2023-05-01T02:40:48;51.43;33.19;70.63;;
66589;Laerm;53447;49.272;11.070;2023-05-01T02:43:15;38.27;33.86;41.69;;
66589;Laerm;53447;49.272;11.070;2023-05-01T02:45:41;40.15;34.44;46.05;;
66589;Laerm;53447;49.272;11.070;2023-05-01T02:48:09;39.21;34.44;43.30;;
66589;Laerm;53447;49.272;11.070;2023-05-01T02:50:35;39.92;35.19;43.01;;
66589;Laerm;53447;49.272;11.070;2023-05-01T02:53:01;40.72;35.62;43.64;;
66589;Laerm;53447;49.272;11.070;2023-05-01T02:55:27;42.15;39.12;46.26;;
66589;Laerm;53447;49.272;11.070;2023-05-01T02:57:56;41.56;36.20;43.54;;
66589;Laerm;53447;49.272;11.070;2023-05-01T03:00:21;42.36;35.19;62.55;;
66589;Laerm;53447;49.272;11.070;2023-05-01T03:02:47;53.83;35.62;72.75;;
66589;Laerm;53447;49.272;11.070;2023-05-01T03:05:12;58.63;39.48;74.20;;
66589;Laerm;53447;49.272;11.070;2023-05-01T03:07:37;61.21;40.03;75.62;;
66589;Laerm;53447;49.272;11.070;2023-05-01T03:10:03;59.74;39.80;73.71;;
66589;Laerm;53447;49.272;11.070;2023-05-01T03:12:29;54.05;40.97;73.45;;
66589;Laerm;53447;49.272;11.070;2023-05-01T03:14:54;56.02;40.03;74.70;;
66589;Laerm;53447;49.272;11.070;2023-05-01T03:17:20;55.59;41.09;70.02;;
66589;Laerm;53447;49.272;11.070;2023-05-01T03:19:45;55.53;38.53;69.73;;
66589;Laerm;53447;49.272;11.070;2023-05-01T03:22:10;55.51;38.73;68.50;;
66589;Laerm;53447;49.272;11.070;2023-05-01T03:24:36;55.45;39.64;71.18;;
66589;Laerm;53447;49.272;11.070;2023-05-01T03:27:01;56.35;38.83;72.87;;
66589;Laerm;53447;49.272;11.070;2023-05-01T03:29:26;58.69;39.21;71.26;;
66589;Laerm;53447;49.272;11.070;2023-05-01T03:31:51;55.81;40.66;69.97;;
66589;Laerm;53447;49.272;11.070;2023-05-01T03:34:17;55.78;39.88;66.21;;
66589;Laerm;53447;49.272;11.070;2023-05-01T03:36:42;55.44;41.89;67.78;;
66589;Laerm;53447;49.272;11.070;2023-05-01T03:39:07;55.25;42.27;69.82;;
66589;Laerm;53447;49.272;11.070;2023-05-01T03:41:33;55.08;41.94;65.26;;
66589;Laerm;53447;49.272;11.070;2023-05-01T03:43:58;56.53;40.59;71.21;;
66589;Laerm;53447;49.272;11.070;2023-05-01T03:46:23;56.16;39.80;68.99;;
66589;Laerm;53447;49.272;11.070;2023-05-01T03:48:48;56.37;39.80;69.10;;
66589;Laerm;53447;49.272;11.070;2023-05-01T03:51:13;53.87;40.11;67.85;;
66589;Laerm;53447;49.272;11.070;2023-05-01T03:53:41;53.43;40.11;65.79;;
66589;Laerm;53447;49.272;11.070;2023-05-01T03:56:06;55.03;38.93;68.39;;
66589;Laerm;53447;49.272;11.070;2023-05-01T03:58:31;52.27;38.93;64.51;;
66589;Laerm;53447;49.272;11.070;2023-05-01T04:00:57;53.05;37.84;66.53;;
66589;Laerm;53447;49.272;11.070;2023-05-01T04:03:24;48.81;39.46;63.03;;
66589;Laerm;53447;49.272;11.070;2023-05-01T04:05:50;46.58;38.08;62.83;;
66589;Laerm;53447;49.272;11.070;2023-05-01T04:08:15;48.26;37.45;61.89;;
66589;Laerm;53447;49.272;11.070;2023-05-01T04:10:40;48.41;40.59;64.73;;
66589;Laerm;53447;49.272;11.070;2023-05-01T04:13:06;47.14;39.88;71.67;;
66589;Laerm;53447;49.272;11.070;2023-05-01T04:15:31;44.13;37.71;61.76;;
66589;Laerm;53447;49.272;11.070;2023-05-01T04:17:56;51.07;37.71;64.37;;
66589;Laerm;53447;49.272;11.070;2023-05-01T04:20:21;51.51;36.71;65.62;;
66589;Laerm;53447;49.272;11.070;2023-05-01T04:22:47;48.29;37.96;66.46;;
66589;Laerm;53447;49.272;11.070;2023-05-01T04:25:12;48.61;38.08;63.14;;
66589;Laerm;53447;49.272;11.070;2023-05-01T04:27:37;44.80;38.08;58.47;;
66589;Laerm;53447;49.272;11.070;2023-05-01T04:30:03;49.49;38.83;66.40;;
66589;Laerm;53447;49.272;11.070;2023-05-01T04:32:28;47.15;38.53;63.36;;
66589;Laerm;53447;49.272;11.070;2023-05-01T04:34:53;50.15;38.73;62.57;;
66589;Laerm;53447;49.272;11.070;2023-05-01T04:37:18;48.50;37.58;62.43;;
66589;Laerm;53447;49.272;11.070;2023-05-01T04:39:44;44.91;37.45;59.47;;
66589;Laerm;53447;49.272;11.070;2023-05-01T04:42:09;45.79;37.02;62.23;;
66589;Laerm;53447;49.272;11.070;2023-05-01T04:44:34;45.27;37.58;61.77;;
66589;Laerm;53447;49.272;11.070;2023-05-01T04:47:01;45.95;38.20;61.91;;
66589;Laerm;53447;49.272;11.070;2023-05-01T04:49:27;46.96;37.71;64.28;;
66589;Laerm;53447;49.272;11.070;2023-05-01T04:51:52;43.55;37.84;58.26;;
66589;Laerm;53447;49.272;11.070;2023-05-01T04:54:17;46.33;38.20;64.01;;
66589;Laerm;53447;49.272;11.070;2023-05-01T04:56:43;45.20;39.72;61.49;;
66589;Laerm;53447;49.272;11.070;2023-05-01T04:59:08;44.17;38.08;60.29;;
66589;Laerm;53447;49.272;11.070;2023-05-01T05:01:33;44.99;37.45;62.11;;
66589;Laerm;53447;49.272;11.070;2023-05-01T05:03:59;54.75;37.45;74.46;;
66589;Laerm;53447;49.272;11.070;2023-05-01T05:06:24;46.99;37.96;63.83;;
66589;Laerm;53447;49.272;11.070;2023-05-01T05:08:50;50.01;37.31;63.11;;
66589;Laerm;53447;49.272;11.070;2023-05-01T05:11:16;45.45;37.31;63.06;;
66589;Laerm;53447;49.272;11.070;2023-05-01T05:13:42;51.85;38.73;64.88;;
66589;Laerm;53447;49.272;11.070;2023-05-01T05:16:07;47.66;38.08;66.02;;
66589;Laerm;53447;49.272;11.070;2023-05-01T05:18:32;42.28;37.96;57.96;;
66589;Laerm;53447;49.272;11.070;2023-05-01T05:20:57;42.68;37.84;53.35;;
66589;Laerm;53447;49.272;11.070;2023-05-01T05:23:23;45.56;38.73;61.16;;
66589;Laerm;53447;49.272;11.070;2023-05-01T05:25:48;49.69;38.73;64.24;;
66589;Laerm;53447;49.272;11.070;2023-05-01T05:28:14;46.44;37.71;63.74;;
66589;Laerm;53447;49.272;11.070;2023-05-01T05:30:39;47.39;37.84;61.99;;
66589;Laerm;53447;49.272;11.070;2023-05-01T05:33:06;46.87;37.45;59.62;;
66589;Laerm;53447;49.272;11.070;2023-05-01T05:35:31;48.92;37.31;63.25;;
66589;Laerm;53447;49.272;11.070;2023-05-01T05:37:56;49.90;37.17;67.12;;
66589;Laerm;53447;49.272;11.070;2023-05-01T05:40:22;51.77;38.20;72.57;;
66589;Laerm;53447;49.272;11.070;2023-05-01T05:42:47;49.02;37.17;63.74;;
66589;Laerm;53447;49.272;11.070;2023-05-01T05:45:13;53.22;38.20;69.78;;
66589;Laerm;53447;49.272;11.070;2023-05-01T05:47:38;51.69;36.55;69.98;;
66589;Laerm;53447;49.272;11.070;2023-05-01T05:50:04;45.20;36.20;68.55;;
66589;Laerm;53447;49.272;11.070;2023-05-01T05:52:29;49.19;39.56;70.21;;
66589;Laerm;53447;49.272;11.070;2023-05-01T05:54:55;61.49;39.64;85.51;;
66589;Laerm;53447;49.272;11.070;2023-05-01T05:57:20;50.97;40.39;63.78;;
66589;Laerm;53447;49.272;11.070;2023-05-01T05:59:45;47.94;37.96;61.50;;
66589;Laerm;53447;49.272;11.070;2023-05-01T06:02:10;47.37;38.53;61.32;;
66589;Laerm;53447;49.272;11.070;2023-05-01T06:04:36;45.58;39.12;58.62;;
66589;Laerm;53447;49.272;11.070;2023-05-01T06:07:01;45.50;37.45;59.06;;
66589;Laerm;53447;49.272;11.070;2023-05-01T06:09:26;50.40;38.08;66.12;;
66589;Laerm;53447;49.272;11.070;2023-05-01T06:11:51;43.94;38.83;56.93;;
66589;Laerm;53447;49.272;11.070;2023-05-01T06:14:17;48.86;39.64;65.06;;
66589;Laerm;53447;49.272;11.070;2023-05-01T06:16:42;53.18;40.39;72.51;;
66589;Laerm;53447;49.272;11.070;2023-05-01T06:19:07;46.37;39.80;64.40;;
66589;Laerm;53447;49.272;11.070;2023-05-01T06:21:34;49.24;37.71;65.72;;
66589;Laerm;53447;49.272;11.070;2023-05-01T06:23:59;48.09;37.71;61.29;;
66589;Laerm;53447;49.272;11.070;2023-05-01T06:26:25;49.25;37.58;63.56;;
66589;Laerm;53447;49.272;11.070;2023-05-01T06:28:50;51.44;36.55;65.25;;
66589;Laerm;53447;49.272;11.070;2023-05-01T06:31:16;50.33;36.55;64.57;;
66589;Laerm;53447;49.272;11.070;2023-05-01T06:33:41;50.39;36.71;65.18;;
66589;Laerm;53447;49.272;11.070;2023-05-01T06:36:06;48.64;36.71;65.87;;
66589;Laerm;53447;49.272;11.070;2023-05-01T06:38:31;52.21;38.83;70.64;;
66589;Laerm;53447;49.272;11.070;2023-05-01T06:40:57;44.65;38.63;62.38;;
66589;Laerm;53447;49.272;11.070;2023-05-01T06:43:22;49.77;37.45;66.85;;
66589;Laerm;53447;49.272;11.070;2023-05-01T06:45:52;44.39;37.31;62.01;;
66589;Laerm;53447;49.272;11.070;2023-05-01T06:48:17;50.67;37.58;70.69;;
66589;Laerm;53447;49.272;11.070;2023-05-01T06:50:42;48.42;43.19;57.09;;
66589;Laerm;53447;49.272;11.070;2023-05-01T06:53:07;51.17;38.42;67.36;;
66589;Laerm;53447;49.272;11.070;2023-05-01T06:55:32;50.58;36.71;71.06;;
66589;Laerm;53447;49.272;11.070;2023-05-01T06:57:58;51.21;36.71;70.99;;
66589;Laerm;53447;49.272;11.070;2023-05-01T07:00:23;47.01;37.31;64.34;;
66589;Laerm;53447;49.272;11.070;2023-05-01T07:02:48;54.57;38.20;69.78;;
66589;Laerm;53447;49.272;11.070;2023-05-01T07:05:14;44.69;37.17;68.16;;
66589;Laerm;53447;49.272;11.070;2023-05-01T07:07:39;46.88;36.71;71.15;;
66589;Laerm;53447;49.272;11.070;2023-05-01T07:10:04;55.04;37.71;74.84;;
66589;Laerm;53447;49.272;11.070;2023-05-01T07:12:30;50.07;36.02;70.25;;
66589;Laerm;53447;49.272;11.070;2023-05-01T07:14:55;42.55;36.20;60.64;;
66589;Laerm;53447;49.272;11.070;2023-05-01T07:17:21;50.03;37.45;64.70;;
66589;Laerm;53447;49.272;11.070;2023-05-01T07:19:46;60.65;38.73;78.70;;
66589;Laerm;53447;49.272;11.070;2023-05-01T07:22:11;46.51;38.08;65.17;;
66589;Laerm;53447;49.272;11.070;2023-05-01T07:24:38;47.53;37.71;68.04;;
66589;Laerm;53447;49.272;11.070;2023-05-01T07:27:03;50.26;38.42;64.33;;
66589;Laerm;53447;49.272;11.070;2023-05-01T07:29:37;50.35;37.02;63.57;;
66589;Laerm;53447;49.272;11.070;2023-05-01T07:32:02;45.28;37.71;64.46;;
66589;Laerm;53447;49.272;11.070;2023-05-01T07:34:30;51.48;38.42;73.03;;
66589;Laerm;53447;49.272;11.070;2023-05-01T07:37:05;53.01;39.03;73.69;;
66589;Laerm;53447;49.272;11.070;2023-05-01T07:39:33;46.22;38.53;60.49;;
66589;Laerm;53447;49.272;11.070;2023-05-01T07:42:01;49.25;39.03;65.47;;
66589;Laerm;53447;49.272;11.070;2023-05-01T07:44:30;53.00;37.02;68.49;;
66589;Laerm;53447;49.272;11.070;2023-05-01T07:47:01;50.83;37.31;70.00;;
66589;Laerm;53447;49.272;11.070;2023-05-01T07:49:28;55.96;39.39;80.42;;
66589;Laerm;53447;49.272;11.070;2023-05-01T07:51:53;52.41;36.02;74.88;;
66589;Laerm;53447;49.272;11.070;2023-05-01T07:54:19;43.98;36.71;62.10;;
66589;Laerm;53447;49.272;11.070;2023-05-01T07:56:46;51.46;37.96;66.67;;
66589;Laerm;53447;49.272;11.070;2023-05-01T07:59:12;49.69;39.88;63.12;;
66589;Laerm;53447;49.272;11.070;2023-05-01T08:01:40;48.23;37.71;62.67;;
66589;Laerm;53447;49.272;11.070;2023-05-01T08:04:18;48.82;37.71;65.44;;
66589;Laerm;53447;49.272;11.070;2023-05-01T08:06:46;49.16;40.46;62.20;;
66589;Laerm;53447;49.272;11.070;2023-05-01T08:12:00;46.47;37.84;59.45;;
66589;Laerm;53447;49.272;11.070;2023-05-01T08:14:27;46.49;37.58;59.68;;
66589;Laerm;53447;49.272;11.070;2023-05-01T08:16:53;47.22;38.83;62.17;;
66589;Laerm;53447;49.272;11.070;2023-05-01T08:19:19;46.66;39.56;62.47;;
66589;Laerm;53447;49.272;11.070;2023-05-01T08:21:44;54.70;39.30;72.89;;
66589;Laerm;53447;49.272;11.070;2023-05-01T08:24:10;52.14;39.80;70.26;;
66589;Laerm;53447;49.272;11.070;2023-05-01T08:26:35;48.23;38.42;67.42;;
66589;Laerm;53447;49.272;11.070;2023-05-01T08:29:00;45.52;37.71;64.60;;
66589;Laerm;53447;49.272;11.070;2023-05-01T08:31:26;55.38;40.18;73.66;;
66589;Laerm;53447;49.272;11.070;2023-05-01T08:33:51;48.96;39.56;65.67;;
66589;Laerm;53447;49.272;11.070;2023-05-01T08:36:16;46.46;38.49;62.38;;
66589;Laerm;53447;49.272;11.070;2023-05-01T08:38:41;49.39;38.93;65.38;;
66589;Laerm;53447;49.272;11.070;2023-05-01T08:41:06;46.06;37.02;63.16;;
66589;Laerm;53447;49.272;11.070;2023-05-01T08:43:32;50.77;38.20;67.78;;
66589;Laerm;53447;49.272;11.070;2023-05-01T08:45:58;50.45;37.71;67.61;;
66589;Laerm;53447;49.272;11.070;2023-05-01T08:48:24;51.89;39.12;68.02;;
66589;Laerm;53447;49.272;11.070;2023-05-01T08:50:49;54.78;40.32;74.05;;
66589;Laerm;53447;49.272;11.070;2023-05-01T08:53:16;51.60;38.93;62.71;;
66589;Laerm;53447;49.272;11.070;2023-05-01T08:55:43;48.11;38.83;68.13;;
66589;Laerm;53447;49.272;11.070;2023-05-01T08:58:10;48.49;39.03;62.23;;
66589;Laerm;53447;49.272;11.070;2023-05-01T09:00:37;47.44;39.03;62.91;;
66589;Laerm;53447;49.272;11.070;2023-05-01T09:03:03;47.25;39.21;62.22;;
66589;Laerm;53447;49.272;11.070;2023-05-01T09:05:30;53.76;39.39;66.56;;
66589;Laerm;53447;49.272;11.070;2023-05-01T09:07:56;51.83;38.53;64.69;;
66589;Laerm;53447;49.272;11.070;2023-05-01T09:10:22;52.95;39.39;72.00;;
66589;Laerm;53447;49.272;11.070;2023-05-01T09:12:51;53.05;38.20;65.31;;
66589;Laerm;53447;49.272;11.070;2023-05-01T09:15:18;52.79;37.02;68.13;;
66589;Laerm;53447;49.272;11.070;2023-05-01T09:17:43;51.33;39.04;64.05;;
66589;Laerm;53447;49.272;11.070;2023-05-01T09:20:09;53.25;40.11;70.77;;
66589;Laerm;53447;49.272;11.070;2023-05-01T09:22:35;44.03;37.45;61.36;;
66589;Laerm;53447;49.272;11.070;2023-05-01T09:25:00;46.29;37.96;70.53;;
66589;Laerm;53447;49.272;11.070;2023-05-01T09:27:26;45.73;37.73;59.81;;
66589;Laerm;53447;49.272;11.070;2023-05-01T09:29:51;51.74;38.08;81.53;;
66589;Laerm;53447;49.272;11.070;2023-05-01T09:32:18;51.59;37.84;65.32;;
66589;Laerm;53447;49.272;11.070;2023-05-01T09:34:46;47.82;38.08;68.31;;
66589;Laerm;53447;49.272;11.070;2023-05-01T09:37:24;43.54;37.31;66.25;;
66589;Laerm;53447;49.272;11.070;2023-05-01T09:40:26;50.28;38.42;66.03;;
66589;Laerm;53447;49.272;11.070;2023-05-01T09:42:48;49.24;38.83;64.79;;
66589;Laerm;53447;49.272;11.070;2023-05-01T09:45:14;48.55;39.72;60.89;;
66589;Laerm;53447;49.272;11.070;2023-05-01T09:47:43;52.11;40.46;76.94;;
66589;Laerm;53447;49.272;11.070;2023-05-01T09:50:09;53.34;39.72;71.10;;
66589;Laerm;53447;49.272;11.070;2023-05-01T09:52:34;55.02;39.21;72.01;;
66589;Laerm;53447;49.272;11.070;2023-05-01T09:57:38;49.47;40.85;62.57;;
66589;Laerm;53447;49.272;11.070;2023-05-01T10:00:03;48.76;40.32;58.40;;
66589;Laerm;53447;49.272;11.070;2023-05-01T10:02:32;49.59;42.65;65.87;;
66589;Laerm;53447;49.272;11.070;2023-05-01T10:04:57;46.17;38.93;59.25;;
66589;Laerm;53447;49.272;11.070;2023-05-01T10:07:24;47.92;37.71;61.15;;
66589;Laerm;53447;49.272;11.070;2023-05-01T10:09:50;44.20;36.87;61.50;;
66589;Laerm;53447;49.272;11.070;2023-05-01T10:12:22;42.93;37.45;54.72;;
66589;Laerm;53447;49.272;11.070;2023-05-01T10:14:51;43.94;37.84;55.12;;
66589;Laerm;53447;49.272;11.070;2023-05-01T10:17:17;53.21;39.03;70.70;;
66589;Laerm;53447;49.272;11.070;2023-05-01T10:19:43;52.46;40.66;70.16;;
66589;Laerm;53447;49.272;11.070;2023-05-01T10:22:09;50.46;40.25;65.22;;
66589;Laerm;53447;49.272;11.070;2023-05-01T10:24:35;46.33;39.21;60.36;;
66589;Laerm;53447;49.272;11.070;2023-05-01T10:27:00;46.86;39.48;64.31;;
66589;Laerm;53447;49.272;11.070;2023-05-01T10:29:30;56.32;39.80;73.98;;
66589;Laerm;53447;49.272;11.070;2023-05-01T10:31:55;51.29;39.64;66.63;;
66589;Laerm;53447;49.272;11.070;2023-05-01T10:34:21;51.10;39.72;63.88;;
66589;Laerm;53447;49.272;11.070;2023-05-01T10:36:49;51.25;39.03;64.86;;
66589;Laerm;53447;49.272;11.070;2023-05-01T10:39:28;42.64;37.58;53.22;;
66589;Laerm;53447;49.272;11.070;2023-05-01T10:44:22;49.76;39.64;65.29;;
66589;Laerm;53447;49.272;11.070;2023-05-01T10:46:48;55.56;39.96;69.77;;
66589;Laerm;53447;49.272;11.070;2023-05-01T10:49:13;52.97;38.93;68.97;;
66589;Laerm;53447;49.272;11.070;2023-05-01T10:51:58;49.54;37.45;68.27;;
66589;Laerm;53447;49.272;11.070;2023-05-01T10:54:27;44.69;39.30;59.24;;
66589;Laerm;53447;49.272;11.070;2023-05-01T10:56:53;47.57;37.17;62.97;;
66589;Laerm;53447;49.272;11.070;2023-05-01T10:59:19;43.74;38.20;60.92;;
66589;Laerm;53447;49.272;11.070;2023-05-01T11:01:45;44.54;37.02;61.45;;
66589;Laerm;53447;49.272;11.070;2023-05-01T11:12:01;44.69;38.42;59.04;;
66589;Laerm;53447;49.272;11.070;2023-05-01T11:14:26;42.57;37.02;58.21;;
66589;Laerm;53447;49.272;11.070;2023-05-01T11:16:51;44.04;36.38;57.69;;
66589;Laerm;53447;49.272;11.070;2023-05-01T11:21:45;51.65;36.20;70.47;;
66589;Laerm;53447;49.272;11.070;2023-05-01T11:24:11;44.61;36.20;57.57;;
66589;Laerm;53447;49.272;11.070;2023-05-01T11:26:39;47.29;40.11;60.17;;
66589;Laerm;53447;49.272;11.070;2023-05-01T11:29:05;52.91;37.58;70.81;;
66589;Laerm;53447;49.272;11.070;2023-05-01T11:31:31;46.11;36.55;63.61;;
66589;Laerm;53447;49.272;11.070;2023-05-01T11:33:56;45.82;38.31;61.47;;
66589;Laerm;53447;49.272;11.070;2023-05-01T11:36:22;53.91;38.93;70.90;;
66589;Laerm;53447;49.272;11.070;2023-05-01T11:38:48;43.25;36.87;59.66;;
66589;Laerm;53447;49.272;11.070;2023-05-01T11:41:13;44.70;38.31;57.07;;
66589;Laerm;53447;49.272;11.070;2023-05-01T11:43:52;43.16;38.42;58.14;;
66589;Laerm;53447;49.272;11.070;2023-05-01T11:48:51;51.47;36.87;71.84;;
66589;Laerm;53447;49.272;11.070;2023-05-01T11:51:17;47.55;36.87;62.72;;
66589;Laerm;53447;49.272;11.070;2023-05-01T11:53:56;48.22;39.12;69.59;;
66589;Laerm;53447;49.272;11.070;2023-05-01T11:56:21;48.63;39.39;62.34;;
66589;Laerm;53447;49.272;11.070;2023-05-01T11:58:48;53.00;38.83;71.07;;
66589;Laerm;53447;49.272;11.070;2023-05-01T12:01:13;52.68;39.72;68.32;;
66589;Laerm;53447;49.272;11.070;2023-05-01T12:03:39;49.48;39.48;69.40;;
66589;Laerm;53447;49.272;11.070;2023-05-01T12:06:05;49.74;38.08;63.31;;
66589;Laerm;53447;49.272;11.070;2023-05-01T12:08:30;50.96;38.53;66.35;;
66589;Laerm;53447;49.272;11.070;2023-05-01T12:10:56;46.29;38.08;61.62;;
66589;Laerm;53447;49.272;11.070;2023-05-01T12:13:22;52.48;37.24;70.67;;
66589;Laerm;53447;49.272;11.070;2023-05-01T12:15:48;53.92;37.17;68.59;;
66589;Laerm;53447;49.272;11.070;2023-05-01T12:18:15;45.25;36.52;59.71;;
66589;Laerm;53447;49.272;11.070;2023-05-01T12:20:45;50.38;37.17;77.04;;
66589;Laerm;53447;49.272;11.070;2023-05-01T12:23:17;51.35;37.71;64.55;;
66589;Laerm;53447;49.272;11.070;2023-05-01T12:25:43;50.40;37.45;67.11;;
66589;Laerm;53447;49.272;11.070;2023-05-01T12:28:13;46.11;37.31;59.66;;
66589;Laerm;53447;49.272;11.070;2023-05-01T12:30:39;51.52;36.87;67.82;;
66589;Laerm;53447;49.272;11.070;2023-05-01T12:33:14;54.42;38.20;71.05;;
66589;Laerm;53447;49.272;11.070;2023-05-01T12:35:40;49.15;39.56;61.65;;
66589;Laerm;53447;49.272;11.070;2023-05-01T12:38:10;53.07;39.21;70.37;;
66589;Laerm;53447;49.272;11.070;2023-05-01T12:40:37;47.74;37.02;66.54;;
66589;Laerm;53447;49.272;11.070;2023-05-01T12:43:02;54.84;38.42;70.28;;
66589;Laerm;53447;49.272;11.070;2023-05-01T12:45:28;47.77;37.45;64.03;;
66589;Laerm;53447;49.272;11.070;2023-05-01T12:47:53;49.31;37.96;72.62;;
66589;Laerm;53447;49.272;11.070;2023-05-01T12:50:18;51.66;38.63;64.62;;
66589;Laerm;53447;49.272;11.070;2023-05-01T12:52:44;51.79;40.46;68.24;;
66589;Laerm;53447;49.272;11.070;2023-05-01T12:55:10;51.05;39.46;67.95;;
66589;Laerm;53447;49.272;11.070;2023-05-01T12:57:49;46.36;38.20;60.47;;
66589;Laerm;53447;49.272;11.070;2023-05-01T13:00:14;53.23;39.03;71.61;;
66589;Laerm;53447;49.272;11.070;2023-05-01T13:02:40;46.54;37.02;64.86;;
66589;Laerm;53447;49.272;11.070;2023-05-01T13:05:09;47.92;38.20;67.53;;
66589;Laerm;53447;49.272;11.070;2023-05-01T13:07:36;47.82;39.96;61.48;;
66589;Laerm;53447;49.272;11.070;2023-05-01T13:10:02;51.01;38.73;73.91;;
66589;Laerm;53447;49.272;11.070;2023-05-01T13:12:30;53.74;39.80;70.96;;
66589;Laerm;53447;49.272;11.070;2023-05-01T13:14:55;44.17;37.58;58.01;;
66589;Laerm;53447;49.272;11.070;2023-05-01T13:17:27;52.88;39.21;71.35;;
66589;Laerm;53447;49.272;11.070;2023-05-01T13:20:00;47.27;37.31;64.50;;
66589;Laerm;53447;49.272;11.070;2023-05-01T13:22:29;45.40;36.87;66.96;;
66589;Laerm;53447;49.272;11.070;2023-05-01T13:24:56;48.48;37.02;67.79;;
66589;Laerm;53447;49.272;11.070;2023-05-01T13:27:21;51.64;36.55;70.49;;
66589;Laerm;53447;49.272;11.070;2023-05-01T13:29:54;51.17;38.93;71.97;;
66589;Laerm;53447;49.272;11.070;2023-05-01T13:32:23;50.25;38.42;69.32;;
66589;Laerm;53447;49.272;11.070;2023-05-01T13:34:48;51.49;38.63;69.68;;
66589;Laerm;53447;49.272;11.070;2023-05-01T13:37:14;52.80;38.42;71.59;;
66589;Laerm;53447;49.272;11.070;2023-05-01T13:39:40;51.22;37.96;74.05;;
66589;Laerm;53447;49.272;11.070;2023-05-01T13:42:06;54.49;37.71;72.45;;
66589;Laerm;53447;49.272;11.070;2023-05-01T13:44:32;51.70;37.31;72.45;;
66589;Laerm;53447;49.272;11.070;2023-05-01T13:47:00;46.47;37.02;62.31;;
66589;Laerm;53447;49.272;11.070;2023-05-01T13:49:25;48.33;36.55;70.72;;
66589;Laerm;53447;49.272;11.070;2023-05-01T13:51:51;46.46;37.85;67.39;;
66589;Laerm;53447;49.272;11.070;2023-05-01T13:54:16;50.16;38.42;70.48;;
66589;Laerm;53447;49.272;11.070;2023-05-01T13:56:43;43.39;37.58;56.04;;
66589;Laerm;53447;49.272;11.070;2023-05-01T13:59:08;45.76;37.84;57.92;;